Kidder, Missouri
Current Conditions -  °F | °C
As of 6:35 PM on Wednesday 26 Nov 2014 (Local Time) from KGPH Reporting Station
Overcast Overcast  
Wind Chill: 20°   Ceiling: 1700
Heat Index: 32°   Visibility: 10mi
Dew Point: 27°   Wind: 21mph
Humidity: 80%   Direction: 320°NW
Pressure: 30.22"   Gusts: 30mph
Location:  39.78°N, 94.1°W
Report Text: KGPH 270035Z AUTO 32018G26KT 10SM OVC017 00/M03 A3022 RMK AO2
Loading
Personal Weather Stations






























Interactive Weather Map New forecast layout! Learn more

10-Day Weather Forecast

Advertisements
Track Severe Weather on mobile